Time;durP1;ratioP1;P1;durP2;ratioP2;P2;SDS_P1;SDS_P2;PMS_P1;PMS_P2;Temp;Humidity;BMP_temperature;BMP_pressure;BME280_temperature;BME280_humidity;BME280_pressure;Samples;Min_cycle;Max_cycle;Signal;HPM_P1;HPM_P2
2022/12/11 00:00:17;;;;;;;14.60;13.10;;;2.90;99.90;;;;;;5039767;28;20239;-77
2022/12/11 00:02:47;;;;;;;18.33;13.32;;;2.90;99.90;;;;;;5040766;28;20225;-76
2022/12/11 00:05:14;;;;;;;16.40;12.63;;;2.90;99.90;;;;;;5040893;28;20607;-77
2022/12/11 00:07:45;;;;;;;17.88;12.25;;;2.90;99.90;;;;;;5046055;28;20232;-77
2022/12/11 00:10:16;;;;;;;15.70;11.70;;;2.90;99.90;;;;;;5040317;28;20525;-77
2022/12/11 00:12:43;;;;;;;14.68;11.63;;;2.90;99.90;;;;;;5037508;28;20221;-78
2022/12/11 00:15:12;;;;;;;14.73;12.75;;;2.90;99.90;;;;;;5046997;28;20217;-78
2022/12/11 00:17:39;;;;;;;16.85;12.68;;;2.90;99.90;;;;;;5038087;28;20240;-78
2022/12/11 00:20:08;;;;;;;14.43;12.48;;;2.90;99.90;;;;;;5042915;28;20681;-79
2022/12/11 00:22:35;;;;;;;19.30;13.50;;;2.90;99.90;;;;;;5041633;28;20675;-78
2022/12/11 00:25:02;;;;;;;16.90;13.80;;;2.90;99.90;;;;;;5042976;28;20601;-78
2022/12/11 00:27:31;;;;;;;17.55;13.85;;;2.80;99.90;;;;;;5039323;28;20335;-79
2022/12/11 00:29:58;;;;;;;16.60;13.40;;;2.80;99.90;;;;;;5040181;28;20237;-79
2022/12/11 00:32:27;;;;;;;16.52;11.50;;;2.80;99.90;;;;;;5050293;28;20225;-79
2022/12/11 00:35:01;;;;;;;18.50;12.32;;;2.90;99.90;;;;;;5050875;28;20221;-76
2022/12/11 00:37:29;;;;;;;14.63;12.30;;;2.90;99.90;;;;;;5041156;28;20253;-79
2022/12/11 00:39:55;;;;;;;13.45;11.40;;;2.90;99.90;;;;;;5048525;28;20224;-79
2022/12/11 00:42:23;;;;;;;14.20;11.48;;;2.80;99.90;;;;;;5042818;28;20227;-79
2022/12/11 00:44:51;;;;;;;16.80;12.18;;;2.80;99.90;;;;;;5050764;28;20221;-78
2022/12/11 00:47:18;;;;;;;18.05;12.57;;;2.80;99.90;;;;;;5052462;28;20229;-78
2022/12/11 00:49:45;;;;;;;15.27;11.50;;;2.80;99.90;;;;;;5042975;28;20335;-78
2022/12/11 00:52:12;;;;;;;12.23;10.90;;;2.80;99.90;;;;;;5041586;28;20282;-77
2022/12/11 00:54:39;;;;;;;13.68;11.38;;;2.80;99.90;;;;;;5049327;28;20232;-78
2022/12/11 00:57:06;;;;;;;13.57;11.10;;;2.90;99.90;;;;;;5041968;28;20589;-78
2022/12/11 00:59:33;;;;;;;17.05;12.85;;;2.90;99.90;;;;;;5036787;28;20233;-78
2022/12/11 01:02:02;;;;;;;14.57;10.85;;;2.80;99.90;;;;;;5046080;28;20232;-77
2022/12/11 01:04:29;;;;;;;14.77;11.05;;;2.80;99.90;;;;;;5051267;28;20283;-78
2022/12/11 01:06:57;;;;;;;19.27;12.85;;;2.80;99.90;;;;;;5044468;28;20236;-78
2022/12/11 01:12:08;;;;;;;18.52;13.07;;;2.90;99.90;;;;;;5038728;28;20228;-77
2022/12/11 01:14:39;;;;;;;17.55;13.32;;;2.90;99.90;;;;;;5047597;28;20222;-78
2022/12/11 01:17:11;;;;;;;17.55;13.70;;;2.90;99.90;;;;;;5053668;28;20670;-78
2022/12/11 01:19:38;;;;;;;18.48;12.55;;;2.90;99.90;;;;;;5040646;28;20243;-76
2022/12/11 01:22:06;;;;;;;17.98;12.35;;;2.90;99.90;;;;;;5048617;28;20573;-76
2022/12/11 01:24:33;;;;;;;18.88;13.20;;;2.90;99.90;;;;;;5040770;28;20304;-76
2022/12/11 01:27:01;;;;;;;19.30;12.40;;;2.90;99.90;;;;;;5041404;28;20225;-76
2022/12/11 01:29:28;;;;;;;15.75;12.10;;;2.90;99.90;;;;;;5046540;28;20543;-78
2022/12/11 01:31:55;;;;;;;17.65;13.10;;;2.90;99.90;;;;;;5050104;28;20228;-77
2022/12/11 01:34:23;;;;;;;16.67;13.00;;;2.90;99.90;;;;;;5044602;28;20822;-76
2022/12/11 01:36:52;;;;;;;16.02;12.25;;;2.90;99.90;;;;;;5047064;28;20320;-76
2022/12/11 01:39:19;;;;;;;16.02;12.57;;;2.90;99.90;;;;;;5036474;28;20245;-76
2022/12/11 01:41:46;;;;;;;19.10;13.40;;;2.90;99.90;;;;;;5046077;28;20271;-76
2022/12/11 01:44:46;;;;;;;15.10;13.48;;;2.90;99.90;;;;;;5040495;28;20231;-76
2022/12/11 01:47:13;;;;;;;18.63;13.20;;;3.00;99.90;;;;;;5040358;28;20212;-76
2022/12/11 01:49:43;;;;;;;20.52;12.90;;;2.90;99.90;;;;;;5046047;28;20232;-77
2022/12/11 01:52:16;;;;;;;16.13;12.02;;;2.90;99.90;;;;;;5040736;28;20245;-76
2022/12/11 01:54:44;;;;;;;17.35;13.25;;;2.90;99.90;;;;;;5036650;28;20222;-76
2022/12/11 01:57:13;;;;;;;14.65;12.30;;;2.80;99.90;;;;;;5044072;28;20243;-77
2022/12/11 01:59:44;;;;;;;18.08;12.60;;;2.90;99.90;;;;;;5043007;28;20651;-75
2022/12/11 02:02:19;;;;;;;21.15;13.80;;;2.80;99.90;;;;;;5037451;28;20220;-76
2022/12/11 02:04:48;;;;;;;17.90;13.07;;;2.80;99.90;;;;;;5044330;28;21609;-78
2022/12/11 02:07:16;;;;;;;17.88;13.75;;;2.90;99.90;;;;;;5034992;28;20229;-78
2022/12/11 02:09:44;;;;;;;18.63;14.68;;;2.90;99.90;;;;;;5045958;28;20252;-77
2022/12/11 02:12:19;;;;;;;19.92;13.75;;;2.80;99.90;;;;;;5039431;28;20222;-78
2022/12/11 02:14:57;;;;;;;19.38;14.25;;;2.80;99.90;;;;;;5035595;28;20693;-77
2022/12/11 02:17:33;;;;;;;18.98;14.15;;;2.80;99.90;;;;;;5040685;28;20573;-78
2022/12/11 02:20:11;;;;;;;23.83;13.90;;;2.80;99.90;;;;;;5041804;28;20237;-79
2022/12/11 02:22:54;;;;;;;16.73;13.40;;;2.80;99.90;;;;;;5044898;28;20694;-78
2022/12/11 02:25:26;;;;;;;17.50;13.02;;;2.70;99.90;;;;;;5048582;28;20674;-78
2022/12/11 02:27:59;;;;;;;21.73;14.90;;;2.80;99.90;;;;;;5043392;28;21190;-78
2022/12/11 02:30:28;;;;;;;16.95;14.13;;;2.80;99.90;;;;;;5037503;28;20225;-78
2022/12/11 02:32:57;;;;;;;19.38;15.18;;;2.80;99.90;;;;;;5046421;28;20259;-78
2022/12/11 02:35:30;;;;;;;17.05;13.68;;;2.80;99.90;;;;;;5047163;28;20236;-78
2022/12/11 02:38:03;;;;;;;20.27;15.30;;;2.80;99.90;;;;;;5040401;28;20711;-78
2022/12/11 02:40:34;;;;;;;19.30;14.30;;;2.80;99.90;;;;;;5039117;28;20239;-78
2022/12/11 02:43:06;;;;;;;22.88;15.55;;;2.80;99.90;;;;;;5046293;28;20224;-78
2022/12/11 02:45:35;;;;;;;23.05;15.70;;;2.90;99.90;;;;;;5038682;28;20682;-78
2022/12/11 02:48:06;;;;;;;18.27;14.05;;;2.80;99.90;;;;;;5038698;28;20557;-78
2022/12/11 02:50:36;;;;;;;17.92;14.88;;;2.80;99.90;;;;;;5044875;28;20278;-78
2022/12/11 02:53:06;;;;;;;18.55;13.32;;;2.90;99.90;;;;;;5040428;28;20217;-78
2022/12/11 02:55:37;;;;;;;20.92;15.55;;;2.80;99.90;;;;;;5048944;28;20225;-78
2022/12/11 02:58:13;;;;;;;17.48;14.07;;;2.90;99.90;;;;;;5049355;28;20580;-78
2022/12/11 03:00:42;;;;;;;20.02;15.45;;;2.90;99.90;;;;;;5042643;28;20240;-78
2022/12/11 03:03:09;;;;;;;15.48;12.48;;;2.90;99.90;;;;;;5049250;28;20221;-79
2022/12/11 03:05:36;;;;;;;17.88;14.48;;;2.90;99.90;;;;;;5046988;28;20283;-78
2022/12/11 03:08:03;;;;;;;19.42;14.05;;;2.90;99.90;;;;;;5055504;28;20285;-79
2022/12/11 03:10:30;;;;;;;21.15;16.20;;;2.80;99.90;;;;;;5050406;28;20291;-79
2022/12/11 03:12:59;;;;;;;19.15;14.40;;;2.80;99.90;;;;;;5044349;28;20224;-78
2022/12/11 03:15:34;;;;;;;19.85;14.65;;;2.80;99.90;;;;;;5042099;28;20232;-78
2022/12/11 03:18:09;;;;;;;17.83;14.35;;;2.80;99.90;;;;;;5043881;28;20228;-78
2022/12/11 03:20:41;;;;;;;19.42;13.10;;;2.70;99.90;;;;;;5035424;28;20245;-78
2022/12/11 03:23:18;;;;;;;18.35;13.15;;;2.70;99.90;;;;;;5046838;28;20221;-78
2022/12/11 03:25:50;;;;;;;17.60;14.10;;;2.70;99.90;;;;;;5043973;28;20651;-78
2022/12/11 03:28:21;;;;;;;21.83;15.07;;;2.70;99.90;;;;;;5049846;28;20248;-78
2022/12/11 03:30:51;;;;;;;23.40;13.75;;;2.70;99.90;;;;;;5049113;28;20668;-78
2022/12/11 03:33:25;;;;;;;19.08;13.68;;;2.70;99.90;;;;;;5041936;28;20275;-76
2022/12/11 03:35:56;;;;;;;19.50;13.63;;;2.70;99.90;;;;;;5033577;28;20320;-77
2022/12/11 03:38:26;;;;;;;20.77;14.68;;;2.70;99.90;;;;;;5043751;28;20229;-78
2022/12/11 03:40:56;;;;;;;20.23;14.43;;;2.70;99.90;;;;;;5034332;28;20287;-77
2022/12/11 03:43:24;;;;;;;16.85;14.05;;;2.70;99.90;;;;;;5047790;28;20216;-76
2022/12/11 03:45:53;;;;;;;16.98;13.10;;;2.80;99.90;;;;;;5045250;28;20236;-77
2022/12/11 03:48:23;;;;;;;18.63;13.82;;;2.80;99.90;;;;;;5036840;28;20283;-76
2022/12/11 03:50:51;;;;;;;17.55;14.23;;;2.80;99.90;;;;;;5042624;28;20284;-76
2022/12/11 03:53:20;;;;;;;19.35;14.68;;;2.80;99.90;;;;;;5040165;28;20237;-76
2022/12/11 03:55:50;;;;;;;19.23;12.65;;;2.80;99.90;;;;;;5032970;28;20225;-76
2022/12/11 03:58:17;;;;;;;15.93;12.32;;;2.80;99.90;;;;;;5047217;28;20601;-76
2022/12/11 04:00:44;;;;;;;24.58;16.00;;;2.80;99.90;;;;;;5052945;28;20670;-76
2022/12/11 04:03:15;;;;;;;19.35;13.50;;;2.80;99.90;;;;;;5051610;28;20251;-76
2022/12/11 04:05:45;;;;;;;18.63;15.00;;;2.80;99.90;;;;;;5051379;28;20240;-76
2022/12/11 04:08:12;;;;;;;17.08;12.73;;;2.80;99.90;;;;;;5047075;28;20220;-76
2022/12/11 04:10:40;;;;;;;23.17;15.57;;;2.80;99.90;;;;;;5036709;28;20303;-76
2022/12/11 04:13:07;;;;;;;23.00;14.88;;;2.90;99.90;;;;;;5040527;28;20229;-76
2022/12/11 04:15:33;;;;;;;19.02;14.18;;;2.90;99.90;;;;;;5050936;28;20238;-76
2022/12/11 04:26:16;;;;;;;20.67;14.93;;;2.80;99.90;;;;;;5055193;28;20297;-78
2022/12/11 04:28:45;;;;;;;21.55;15.30;;;2.80;99.90;;;;;;5043991;28;20283;-78
2022/12/11 04:31:12;;;;;;;18.70;14.60;;;2.80;99.90;;;;;;5044373;28;20257;-77
2022/12/11 04:33:39;;;;;;;18.38;13.05;;;2.80;99.90;;;;;;5049064;28;20224;-76
2022/12/11 04:36:09;;;;;;;17.27;13.20;;;2.80;99.90;;;;;;5057342;28;20286;-76
2022/12/11 04:38:36;;;;;;;17.58;13.32;;;2.80;99.90;;;;;;5043224;28;20605;-76
2022/12/11 04:41:05;;;;;;;20.63;14.60;;;2.80;99.90;;;;;;5043420;28;20248;-76
2022/12/11 04:43:32;;;;;;;17.45;13.90;;;2.80;99.90;;;;;;5043854;28;20279;-76
2022/12/11 04:46:03;;;;;;;22.33;15.13;;;2.80;99.90;;;;;;5044613;28;20248;-78
2022/12/11 04:48:31;;;;;;;19.50;14.75;;;2.80;99.90;;;;;;5049765;28;20234;-76
2022/12/11 04:50:58;;;;;;;20.95;14.65;;;2.70;99.90;;;;;;5051254;28;20270;-78
2022/12/11 04:53:26;;;;;;;19.90;13.40;;;2.70;99.90;;;;;;5047508;28;20228;-75
2022/12/11 04:55:54;;;;;;;19.60;14.77;;;2.70;99.90;;;;;;5048196;28;20231;-78
2022/12/11 04:58:24;;;;;;;19.98;13.52;;;2.70;99.90;;;;;;5057404;28;20222;-78
2022/12/11 05:00:52;;;;;;;16.88;12.73;;;2.80;99.90;;;;;;5057611;28;20229;-78
2022/12/11 05:03:19;;;;;;;24.10;13.68;;;2.70;99.90;;;;;;5052650;28;20229;-78
2022/12/11 05:05:49;;;;;;;20.65;12.23;;;2.70;99.90;;;;;;5039878;28;20586;-76
2022/12/11 05:08:16;;;;;;;19.27;13.75;;;2.70;99.90;;;;;;5053713;28;20287;-78
2022/12/11 05:10:45;;;;;;;18.55;14.70;;;2.70;99.90;;;;;;5048256;28;20340;-77
2022/12/11 05:13:12;;;;;;;21.70;15.35;;;2.70;99.90;;;;;;5061033;28;20221;-78
2022/12/11 05:15:40;;;;;;;21.23;15.25;;;2.70;99.90;;;;;;5046675;28;20255;-77
2022/12/11 05:18:07;;;;;;;19.85;15.70;;;2.70;99.90;;;;;;5052432;28;20225;-77
2022/12/11 05:20:34;;;;;;;24.42;16.70;;;2.70;99.90;;;;;;5071601;28;20250;-78
2022/12/11 05:23:01;;;;;;;24.23;16.42;;;2.60;99.90;;;;;;5069719;28;20220;-77
2022/12/11 05:25:28;;;;;;;22.40;15.80;;;2.70;99.90;;;;;;5069701;28;20224;-74
2022/12/11 05:27:57;;;;;;;23.25;16.35;;;2.70;99.90;;;;;;5068200;28;20241;-77
2022/12/11 05:30:24;;;;;;;21.35;14.65;;;2.60;99.90;;;;;;5067340;28;20221;-76
2022/12/11 05:32:53;;;;;;;22.23;16.40;;;2.60;99.90;;;;;;5067700;28;20252;-76
2022/12/11 05:35:20;;;;;;;20.60;15.02;;;2.60;99.90;;;;;;5071804;28;20228;-77
2022/12/11 05:37:47;;;;;;;20.65;15.77;;;2.60;99.90;;;;;;5074758;28;20274;-78
2022/12/11 05:40:14;;;;;;;20.00;14.85;;;2.60;99.90;;;;;;5074953;28;20323;-78
2022/12/11 05:42:41;;;;;;;19.73;14.00;;;2.60;99.90;;;;;;5073088;28;20244;-78
2022/12/11 05:45:11;;;;;;;19.65;14.48;;;2.70;99.90;;;;;;5074839;28;20205;-76
2022/12/11 05:47:38;;;;;;;15.00;13.40;;;2.70;99.90;;;;;;5075581;28;20229;-78
2022/12/11 05:50:05;;;;;;;18.63;14.63;;;2.70;99.90;;;;;;5075204;28;20224;-79
2022/12/11 05:52:33;;;;;;;18.33;13.60;;;2.70;99.90;;;;;;5071617;28;20229;-76
2022/12/11 05:55:00;;;;;;;20.45;14.30;;;2.70;99.90;;;;;;5066647;28;20285;-79
2022/12/11 05:57:27;;;;;;;17.70;13.35;;;2.80;99.90;;;;;;5060922;28;20232;-78
2022/12/11 05:59:54;;;;;;;22.35;12.90;;;2.70;99.90;;;;;;5057441;28;20225;-78
2022/12/11 06:02:24;;;;;;;19.55;13.50;;;2.70;99.90;;;;;;5055837;28;20224;-78
2022/12/11 06:04:54;;;;;;;20.85;14.27;;;2.70;99.90;;;;;;5054267;28;20267;-76
2022/12/11 06:07:20;;;;;;;21.00;13.20;;;2.70;99.90;;;;;;5055938;28;20705;-77
2022/12/11 06:09:47;;;;;;;20.15;13.93;;;2.70;99.90;;;;;;5054037;28;20220;-77
2022/12/11 06:12:14;;;;;;;18.23;12.88;;;2.60;99.90;;;;;;5055309;28;20217;-76
2022/12/11 06:14:41;;;;;;;16.15;12.98;;;2.60;99.90;;;;;;5054802;28;20615;-77
2022/12/11 06:17:08;;;;;;;20.08;13.07;;;2.60;99.90;;;;;;5054623;28;20228;-77
2022/12/11 06:19:37;;;;;;;19.90;13.50;;;2.50;99.90;;;;;;5054100;28;20315;-77
2022/12/11 06:22:05;;;;;;;19.98;14.13;;;2.50;99.90;;;;;;5054356;28;20217;-77
2022/12/11 06:24:32;;;;;;;17.42;13.93;;;2.50;99.90;;;;;;5054100;28;20225;-78
2022/12/11 06:27:02;;;;;;;21.00;15.20;;;2.50;99.90;;;;;;5054898;28;20228;-78
2022/12/11 06:29:29;;;;;;;21.13;13.48;;;2.50;99.90;;;;;;5054024;28;20298;-78
2022/12/11 06:31:56;;;;;;;18.95;13.85;;;2.40;99.90;;;;;;5053688;28;20306;-78
2022/12/11 06:34:23;;;;;;;17.35;13.57;;;2.40;99.90;;;;;;5053837;28;20662;-77
2022/12/11 06:36:51;;;;;;;20.30;14.52;;;2.50;99.90;;;;;;5053882;28;20251;-78
2022/12/11 06:39:19;;;;;;;19.40;12.55;;;2.40;99.90;;;;;;5053538;28;20225;-78
2022/12/11 06:41:47;;;;;;;14.60;10.80;;;2.40;99.90;;;;;;5053493;28;20221;-79
2022/12/11 06:44:14;;;;;;;13.45;10.27;;;2.40;99.90;;;;;;5053121;28;20248;-79
2022/12/11 06:46:41;;;;;;;13.10;9.95;;;2.40;99.90;;;;;;5053772;28;20290;-78
2022/12/11 06:49:08;;;;;;;15.65;10.80;;;2.30;99.90;;;;;;5054416;28;20275;-79
2022/12/11 06:51:35;;;;;;;13.75;10.65;;;2.30;99.90;;;;;;5053663;28;20283;-79
2022/12/11 06:54:03;;;;;;;13.45;10.20;;;2.30;99.90;;;;;;5054287;28;20225;-79
2022/12/11 06:56:30;;;;;;;12.77;10.15;;;2.30;99.90;;;;;;5054041;28;20282;-79
2022/12/11 06:59:00;;;;;;;13.23;10.30;;;2.30;99.90;;;;;;5053853;28;20220;-79
2022/12/11 07:01:28;;;;;;;12.70;9.20;;;2.30;99.90;;;;;;5055246;28;20248;-79
2022/12/11 07:03:56;;;;;;;13.73;10.48;;;2.30;99.90;;;;;;5054780;28;20221;-79
2022/12/11 07:06:23;;;;;;;14.85;11.75;;;2.30;99.90;;;;;;5055909;28;20220;-79
2022/12/11 07:08:50;;;;;;;12.40;10.65;;;2.30;99.90;;;;;;5052898;28;20225;-79
2022/12/11 07:11:23;;;;;;;10.90;8.60;;;2.30;99.90;;;;;;5054369;28;20220;-79
2022/12/11 07:13:50;;;;;;;11.55;10.15;;;2.30;99.90;;;;;;5057566;28;20625;-79
2022/12/11 07:16:18;;;;;;;14.82;11.70;;;2.30;99.90;;;;;;5055767;28;20220;-79
2022/12/11 07:18:48;;;;;;;15.48;10.65;;;2.30;99.90;;;;;;5054873;28;20247;-79
2022/12/11 07:21:17;;;;;;;10.90;9.02;;;2.40;99.90;;;;;;5044787;28;20231;-77
2022/12/11 07:23:44;;;;;;;10.02;9.02;;;2.30;99.90;;;;;;5053085;28;20220;-78
2022/12/11 07:26:13;;;;;;;12.40;9.18;;;2.30;99.90;;;;;;5053008;28;20224;-77
2022/12/11 07:28:43;;;;;;;10.35;9.05;;;2.30;99.90;;;;;;5052367;28;20274;-78
2022/12/11 07:31:12;;;;;;;14.52;9.75;;;2.20;99.90;;;;;;5053273;28;20216;-77
2022/12/11 07:33:40;;;;;;;14.00;9.20;;;2.20;99.90;;;;;;5052653;28;20232;-76
2022/12/11 07:36:09;;;;;;;11.20;9.02;;;2.20;99.90;;;;;;5052993;28;20225;-76
2022/12/11 07:38:37;;;;;;;13.80;9.85;;;2.10;99.90;;;;;;5052960;28;20221;-76
2022/12/11 07:41:05;;;;;;;14.30;10.43;;;2.10;99.90;;;;;;5053037;28;20232;-78
2022/12/11 07:43:32;;;;;;;11.70;9.38;;;2.20;99.90;;;;;;5058174;28;20224;-78
2022/12/11 07:46:03;;;;;;;13.80;10.50;;;2.10;99.90;;;;;;5057282;28;20401;-78
2022/12/11 07:48:31;;;;;;;14.85;10.02;;;2.20;99.90;;;;;;5057831;28;20232;-78
2022/12/11 07:51:09;;;;;;;10.27;8.23;;;2.10;99.90;;;;;;5057377;28;20670;-78
2022/12/11 07:53:36;;;;;;;13.90;10.73;;;2.10;99.90;;;;;;5058990;28;20224;-78
2022/12/11 07:56:03;;;;;;;13.15;10.68;;;2.10;99.90;;;;;;5057704;28;20726;-78
2022/12/11 07:58:37;;;;;;;14.00;10.20;;;2.00;99.90;;;;;;5057569;28;20307;-79
2022/12/11 08:01:06;;;;;;;11.75;10.50;;;2.00;99.90;;;;;;5057562;28;20220;-79
2022/12/11 08:03:34;;;;;;;11.95;9.63;;;2.00;99.90;;;;;;5058541;28;20298;-79
2022/12/11 08:06:01;;;;;;;13.95;10.10;;;2.00;99.90;;;;;;5057035;28;20231;-79
2022/12/11 08:08:28;;;;;;;13.30;9.25;;;2.00;99.90;;;;;;5057875;28;20232;-79
2022/12/11 08:10:55;;;;;;;14.65;9.80;;;2.00;99.90;;;;;;5056615;28;20248;-79
2022/12/11 08:13:22;;;;;;;15.75;11.40;;;2.00;99.90;;;;;;5057104;28;20228;-79
2022/12/11 08:15:50;;;;;;;11.73;9.10;;;2.00;99.90;;;;;;5056259;28;20566;-79
2022/12/11 08:18:18;;;;;;;16.63;10.68;;;2.00;99.90;;;;;;5056602;28;20643;-79
2022/12/11 08:20:45;;;;;;;13.65;10.02;;;2.00;99.90;;;;;;5056008;28;20291;-79
2022/12/11 08:23:13;;;;;;;14.52;9.43;;;2.00;99.90;;;;;;5056718;28;20228;-79
2022/12/11 08:25:40;;;;;;;13.30;10.13;;;1.90;99.90;;;;;;5056754;28;20229;-79
2022/12/11 08:28:08;;;;;;;15.00;10.27;;;1.90;99.90;;;;;;5055311;28;20232;-79
2022/12/11 08:30:38;;;;;;;12.00;10.13;;;1.90;99.90;;;;;;5056331;28;20260;-79
2022/12/11 08:33:05;;;;;;;14.10;10.55;;;1.90;99.90;;;;;;5056381;28;20235;-80
2022/12/11 08:35:33;;;;;;;17.48;15.57;;;1.90;99.90;;;;;;5056073;28;20220;-79
2022/12/11 08:38:00;;;;;;;17.63;15.52;;;1.90;99.90;;;;;;5055633;28;20257;-79
2022/12/11 08:40:27;;;;;;;24.85;19.10;;;2.00;99.90;;;;;;5055870;28;20225;-77
2022/12/11 08:42:54;;;;;;;16.65;14.45;;;1.90;99.90;;;;;;5055059;28;20235;-76
2022/12/11 08:45:21;;;;;;;14.95;13.32;;;1.90;99.90;;;;;;5055795;28;20271;-77
2022/12/11 08:47:48;;;;;;;17.20;15.48;;;1.90;99.90;;;;;;5055753;28;20241;-78
2022/12/11 08:50:15;;;;;;;19.13;16.02;;;2.00;99.90;;;;;;5056154;28;20716;-78
2022/12/11 08:52:44;;;;;;;14.20;12.68;;;2.00;99.90;;;;;;5055005;28;20294;-77
2022/12/11 08:55:11;;;;;;;13.68;9.93;;;2.00;99.90;;;;;;5053460;28;20221;-79
2022/12/11 08:57:39;;;;;;;12.43;11.13;;;2.00;99.90;;;;;;5055091;28;20232;-79
2022/12/11 09:00:08;;;;;;;11.35;8.90;;;2.10;99.90;;;;;;5054525;28;20304;-78
2022/12/11 09:02:36;;;;;;;12.38;9.90;;;2.10;99.90;;;;;;5055113;28;20247;-79
2022/12/11 09:05:08;;;;;;;14.52;11.13;;;2.10;99.90;;;;;;5055316;28;20228;-78
2022/12/11 09:07:38;;;;;;;12.05;10.38;;;2.10;99.90;;;;;;5054878;28;20220;-77
2022/12/11 09:10:08;;;;;;;11.43;10.20;;;2.10;99.90;;;;;;5054654;28;20225;-77
2022/12/11 09:12:37;;;;;;;14.05;10.52;;;2.10;99.90;;;;;;5056540;28;20224;-78
2022/12/11 09:15:04;;;;;;;13.98;12.00;;;2.10;99.90;;;;;;5046836;28;20312;-78
2022/12/11 09:17:31;;;;;;;13.77;11.15;;;2.10;99.90;;;;;;5055415;28;20635;-78
2022/12/11 09:19:58;;;;;;;15.95;11.88;;;2.10;99.90;;;;;;5055352;28;20235;-78
2022/12/11 09:22:25;;;;;;;11.73;10.48;;;2.10;99.90;;;;;;5056420;28;20220;-78
2022/12/11 09:24:54;;;;;;;15.45;12.85;;;2.10;99.90;;;;;;5055010;28;20228;-76
2022/12/11 09:27:24;;;;;;;13.18;11.70;;;2.10;99.90;;;;;;5054326;28;20617;-79
2022/12/11 09:29:51;;;;;;;16.30;14.57;;;2.10;99.90;;;;;;5056908;28;20307;-76
2022/12/11 09:32:19;;;;;;;18.08;15.10;;;2.10;99.90;;;;;;5052986;28;20224;-76
2022/12/11 09:34:46;;;;;;;12.98;11.02;;;2.20;99.90;;;;;;5056058;28;20225;-76
2022/12/11 09:37:13;;;;;;;15.55;12.68;;;2.20;99.90;;;;;;5056517;28;20229;-76
2022/12/11 09:39:40;;;;;;;17.30;10.27;;;2.20;99.90;;;;;;5057845;28;20236;-75
2022/12/11 09:42:15;;;;;;;13.60;11.52;;;2.20;99.90;;;;;;5057445;28;20767;-77
2022/12/11 09:44:52;;;;;;;11.68;9.60;;;2.10;99.90;;;;;;5052293;28;20223;-76
2022/12/11 09:47:32;;;;;;;14.40;10.65;;;2.10;99.90;;;;;;5064037;28;20288;-77
2022/12/11 09:50:09;;;;;;;13.45;10.60;;;2.20;99.90;;;;;;5055519;28;20694;-76
2022/12/11 09:52:40;;;;;;;13.07;10.55;;;2.20;99.90;;;;;;5055454;28;20248;-77
2022/12/11 09:55:15;;;;;;;11.52;9.45;;;2.10;99.90;;;;;;5047990;28;20690;-77
2022/12/11 09:57:51;;;;;;;13.60;10.80;;;2.10;99.90;;;;;;5055759;28;20318;-77
2022/12/11 10:00:26;;;;;;;13.20;11.13;;;2.10;99.90;;;;;;5055419;28;20565;-77
2022/12/11 10:03:10;;;;;;;12.50;9.90;;;2.10;99.90;;;;;;5057672;28;20220;-77
2022/12/11 10:05:45;;;;;;;14.07;11.32;;;2.00;99.90;;;;;;5057482;28;20225;-76
2022/12/11 10:08:18;;;;;;;10.95;9.02;;;2.00;99.90;;;;;;5058173;28;20312;-78
2022/12/11 10:10:51;;;;;;;11.55;9.80;;;2.00;99.90;;;;;;5059690;28;20324;-78
2022/12/11 10:13:30;;;;;;;14.60;10.57;;;2.00;99.90;;;;;;5058940;28;20220;-78
2022/12/11 10:16:02;;;;;;;12.50;9.95;;;2.10;99.90;;;;;;5060940;28;20282;-79
2022/12/11 10:18:32;;;;;;;15.93;11.57;;;2.10;99.90;;;;;;5058804;28;20316;-76
2022/12/11 10:21:03;;;;;;;14.35;11.70;;;2.10;99.90;;;;;;5057692;28;20231;-76
2022/12/11 10:23:36;;;;;;;14.63;12.13;;;2.10;99.90;;;;;;5055880;28;20248;-77
2022/12/11 10:26:07;;;;;;;13.63;11.05;;;2.10;99.90;;;;;;5057616;28;20229;-77
2022/12/11 10:28:35;;;;;;;14.52;10.25;;;2.10;99.90;;;;;;5055526;28;20255;-77
2022/12/11 10:31:11;;;;;;;16.38;11.40;;;2.20;99.90;;;;;;5058197;28;20228;-77
2022/12/11 10:33:45;;;;;;;14.30;11.32;;;2.20;99.90;;;;;;5057820;28;20220;-77
2022/12/11 10:36:19;;;;;;;14.07;11.13;;;2.30;99.90;;;;;;5057084;28;20250;-77
2022/12/11 10:38:47;;;;;;;12.00;9.43;;;2.30;99.90;;;;;;5056408;28;20216;-76
2022/12/11 10:41:17;;;;;;;14.50;11.20;;;2.30;99.90;;;;;;5055996;28;20625;-76
2022/12/11 10:43:46;;;;;;;14.55;11.00;;;2.30;99.90;;;;;;5055875;28;20248;-77
2022/12/11 10:46:19;;;;;;;13.57;11.32;;;2.30;99.90;;;;;;5059421;28;20236;-78
2022/12/11 10:48:47;;;;;;;12.35;9.65;;;2.40;99.90;;;;;;5060351;28;20216;-79
2022/12/11 10:51:15;;;;;;;17.60;10.85;;;2.40;99.90;;;;;;5055072;28;20224;-79
2022/12/11 10:53:43;;;;;;;12.00;9.85;;;2.40;99.90;;;;;;5055126;28;20229;-79
2022/12/11 10:56:16;;;;;;;15.70;10.90;;;2.40;99.90;;;;;;5055646;28;20607;-77
2022/12/11 10:58:50;;;;;;;15.55;11.02;;;2.40;99.90;;;;;;5054545;28;20273;-76
2022/12/11 11:01:22;;;;;;;14.30;12.30;;;2.40;99.90;;;;;;5054828;28;20227;-78
2022/12/11 11:03:56;;;;;;;12.00;9.38;;;2.40;99.90;;;;;;5052783;28;20292;-77
2022/12/11 11:06:25;;;;;;;14.80;10.18;;;2.40;99.90;;;;;;5053238;28;20621;-79
2022/12/11 11:08:54;;;;;;;14.40;10.68;;;2.50;99.90;;;;;;5052010;28;20666;-79
2022/12/11 11:11:25;;;;;;;15.13;10.98;;;2.50;99.90;;;;;;5053021;28;20748;-78
2022/12/11 11:13:53;;;;;;;13.60;10.13;;;2.50;99.90;;;;;;5058165;28;20235;-77
2022/12/11 11:16:22;;;;;;;14.35;11.63;;;2.50;99.90;;;;;;5053249;28;20220;-78
2022/12/11 11:18:53;;;;;;;14.25;11.32;;;2.50;99.90;;;;;;5052295;28;20353;-78
2022/12/11 11:21:28;;;;;;;17.17;11.13;;;2.50;99.90;;;;;;5053021;28;20235;-78
2022/12/11 11:23:55;;;;;;;14.38;10.77;;;2.50;99.90;;;;;;5053548;28;20252;-78
2022/12/11 11:26:23;;;;;;;15.00;12.13;;;2.50;99.90;;;;;;5053545;28;20236;-78
2022/12/11 11:28:52;;;;;;;14.60;11.20;;;2.50;99.90;;;;;;5053498;28;20550;-77
2022/12/11 11:31:22;;;;;;;12.73;11.27;;;2.50;99.90;;;;;;5053903;28;20209;-79
2022/12/11 11:33:56;;;;;;;13.73;11.10;;;2.50;99.90;;;;;;5054488;28;20248;-79
2022/12/11 11:36:25;;;;;;;12.25;10.85;;;2.50;99.90;;;;;;5057877;28;20243;-79
2022/12/11 11:39:07;;;;;;;16.27;12.23;;;2.60;99.90;;;;;;5057016;28;20243;-77
2022/12/11 11:41:42;;;;;;;19.20;11.77;;;2.60;99.90;;;;;;5054756;28;20308;-76
2022/12/11 11:44:12;;;;;;;14.77;11.90;;;2.60;99.90;;;;;;5059749;28;20247;-78
2022/12/11 11:46:47;;;;;;;16.02;12.73;;;2.60;99.90;;;;;;5061965;28;20362;-78
2022/12/11 11:49:23;;;;;;;13.57;10.60;;;2.60;99.90;;;;;;5060347;28;20220;-76
2022/12/11 11:51:55;;;;;;;16.08;10.88;;;2.60;99.90;;;;;;5060878;28;20595;-78
2022/12/11 11:54:31;;;;;;;18.15;12.52;;;2.70;99.90;;;;;;5061604;28;20221;-76
2022/12/11 11:57:03;;;;;;;13.80;11.57;;;2.70;99.90;;;;;;5064637;28;20235;-78
2022/12/11 11:59:34;;;;;;;16.42;12.02;;;2.70;99.90;;;;;;5067326;28;20297;-77
2022/12/11 12:02:14;;;;;;;16.98;13.25;;;2.70;99.90;;;;;;5062811;28;20307;-78
2022/12/11 12:04:44;;;;;;;17.42;12.35;;;2.70;99.90;;;;;;5068403;28;20225;-78
2022/12/11 12:07:24;;;;;;;16.42;12.45;;;2.70;99.90;;;;;;5068687;28;20224;-78
2022/12/11 12:10:03;;;;;;;16.00;11.88;;;2.70;99.90;;;;;;5068749;28;20295;-78
2022/12/11 12:12:41;;;;;;;15.52;12.15;;;2.80;99.90;;;;;;5067962;28;20282;-78
2022/12/11 12:15:30;;;;;;;16.65;12.50;;;2.80;99.90;;;;;;5066981;28;20217;-77
2022/12/11 12:18:07;;;;;;;13.80;11.05;;;2.80;99.90;;;;;;5057330;28;20225;-78
2022/12/11 12:20:42;;;;;;;17.08;12.10;;;2.80;99.90;;;;;;5069705;28;20297;-78
2022/12/11 12:23:46;;;;;;;14.43;11.65;;;2.80;99.90;;;;;;5068594;28;20231;-79
2022/12/11 12:26:21;;;;;;;16.02;11.70;;;2.80;99.90;;;;;;5069588;28;20224;-79
2022/12/11 12:29:05;;;;;;;18.10;12.00;;;2.80;99.90;;;;;;5067399;28;20224;-78
2022/12/11 12:31:46;;;;;;;16.95;12.43;;;2.80;99.90;;;;;;5068558;28;20339;-78
2022/12/11 12:34:23;;;;;;;16.00;13.07;;;2.90;99.90;;;;;;5068222;28;20232;-78
2022/12/11 12:37:01;;;;;;;14.80;12.70;;;3.00;99.90;;;;;;5068539;28;20351;-78
2022/12/11 12:39:36;;;;;;;17.10;13.00;;;3.00;99.90;;;;;;5067094;28;20235;-76
2022/12/11 12:42:11;;;;;;;16.25;13.27;;;3.00;99.90;;;;;;5067686;28;20291;-76
2022/12/11 12:44:49;;;;;;;15.63;12.60;;;3.00;99.90;;;;;;5066635;28;20224;-76
2022/12/11 12:47:18;;;;;;;15.93;12.63;;;3.00;99.90;;;;;;5066849;28;20224;-77
2022/12/11 12:49:49;;;;;;;11.25;9.88;;;3.00;99.90;;;;;;5065571;28;20225;-76
2022/12/11 12:52:22;;;;;;;17.08;13.63;;;3.00;99.90;;;;;;5065356;28;20231;-76
2022/12/11 12:57:40;;;;;;;14.02;11.65;;;3.00;99.90;;;;;;5061185;28;20232;-78
2022/12/11 13:00:09;;;;;;;14.70;11.88;;;3.00;99.90;;;;;;5059453;28;20224;-78
2022/12/11 13:02:38;;;;;;;14.65;12.05;;;3.10;99.90;;;;;;5061709;28;20228;-78
2022/12/11 13:05:22;;;;;;;13.48;11.75;;;3.00;99.90;;;;;;5059024;28;20221;-78